Time,TemperatureF,DewpointF,PressureIn,WindDirection,WindDirectionDegrees,WindSpeedMPH,WindSpeedGustMPH,Humidity,HourlyPrecipIn,Conditions,Clouds,dailyrainin,SolarRadiationWatts/m^2,SoftwareType,DateUTC
2013-08-01 00:02:00,58.0,55.0,-100.00,SSE,151,0.0,3.0,90,0.00,,,0.00,0.000000,,2013-08-01 07:02:00,
2013-08-01 00:12:00,58.0,55.0,-100.00,SSE,151,0.0,3.0,90,0.00,,,0.00,0.000000,,2013-08-01 07:12:00,
2013-08-01 00:22:00,58.0,55.0,-100.00,SSE,151,0.0,3.0,90,0.00,,,0.00,0.000000,,2013-08-01 07:22:00,
2013-08-01 00:55:00,56.0,55.0,-100.00,NE,38,0.0,3.0,95,0.00,,,0.00,0.000000,,2013-08-01 07:55:00,
2013-08-01 01:03:00,56.0,55.0,-100.00,NE,38,0.0,3.0,95,0.00,,,0.00,0.000000,,2013-08-01 08:03:00,
2013-08-01 01:14:00,56.0,55.0,-100.00,NE,38,0.0,3.0,95,0.00,,,0.00,0.000000,,2013-08-01 08:14:00,
2013-08-01 01:22:00,56.0,55.0,-100.00,NE,38,0.0,3.0,95,0.00,,,0.00,0.000000,,2013-08-01 08:22:00,
2013-08-01 02:06:00,56.0,54.0,-100.00,SE,137,1.0,3.0,94,0.00,,,0.00,0.000000,,2013-08-01 09:06:00,
2013-08-01 02:23:00,56.0,54.0,-100.00,SE,137,1.0,3.0,94,0.00,,,0.00,0.000000,,2013-08-01 09:23:00,
2013-08-01 03:06:00,55.0,54.0,-100.00,SE,125,1.0,2.0,97,0.00,,,0.00,0.000000,,2013-08-01 10:06:00,
2013-08-01 03:22:00,55.0,54.0,-100.00,SE,125,1.0,2.0,97,0.00,,,0.00,0.000000,,2013-08-01 10:22:00,
2013-08-01 04:06:00,54.0,53.0,-100.00,SSW,211,0.0,3.0,98,0.00,,,0.00,0.000000,,2013-08-01 11:06:00,
2013-08-01 04:14:00,54.0,53.0,-100.00,SSW,211,0.0,3.0,98,0.00,,,0.00,0.000000,,2013-08-01 11:14:00,
2013-08-01 07:08:00,52.0,51.0,-100.00,SE,143,1.0,3.0,98,0.00,,,0.00,7.000000,,2013-08-01 14:08:00,
2013-08-01 08:15:00,50.0,49.0,-100.00,NE,40,0.0,3.0,97,0.00,,,0.00,61.000000,,2013-08-01 15:15:00,
2013-08-01 09:56:00,56.0,54.0,-100.00,WNW,294,0.0,3.0,92,0.00,,,0.00,348.000000,,2013-08-01 16:56:00,
2013-08-01 10:14:00,56.0,54.0,-100.00,WNW,294,0.0,3.0,92,0.00,,,0.00,348.000000,,2013-08-01 17:14:00,
2013-08-01 10:24:00,56.0,54.0,-100.00,WNW,294,0.0,3.0,92,0.00,,,0.00,348.000000,,2013-08-01 17:24:00,
2013-08-01 11:07:00,57.0,52.0,-100.00,North,357,2.0,4.0,84,0.00,,,0.00,542.000000,,2013-08-01 18:07:00,
2013-08-01 11:16:00,57.0,52.0,-100.00,North,357,2.0,4.0,84,0.00,,,0.00,542.000000,,2013-08-01 18:16:00,
2013-08-01 11:24:00,57.0,52.0,-100.00,North,357,2.0,4.0,84,0.00,,,0.00,542.000000,,2013-08-01 18:24:00,
2013-08-01 11:59:00,61.0,53.0,-100.00,NNE,22,2.0,5.0,76,0.00,,,0.00,687.000000,,2013-08-01 18:59:00,
2013-08-01 12:04:00,61.0,53.0,-100.00,NNE,22,2.0,5.0,76,0.00,,,0.00,687.000000,,2013-08-01 19:04:00,
2013-08-01 12:15:00,61.0,53.0,-100.00,NNE,22,2.0,5.0,76,0.00,,,0.00,687.000000,,2013-08-01 19:15:00,
2013-08-01 12:23:00,61.0,53.0,-100.00,NNE,22,2.0,5.0,76,0.00,,,0.00,687.000000,,2013-08-01 19:23:00,
2013-08-01 13:14:00,62.0,54.0,-100.00,North,359,4.0,7.0,75,0.00,,,0.00,774.000000,,2013-08-01 20:14:00,
2013-08-01 13:23:00,62.0,54.0,-100.00,North,359,4.0,7.0,75,0.00,,,0.00,774.000000,,2013-08-01 20:23:00,
2013-08-01 13:58:00,65.0,55.0,-100.00,WNW,301,4.0,9.0,71,0.00,,,0.00,819.000000,,2013-08-01 20:58:00,
2013-08-01 14:03:00,65.0,55.0,-100.00,WNW,301,4.0,9.0,71,0.00,,,0.00,819.000000,,2013-08-01 21:03:00,
2013-08-01 14:53:00,66.0,55.0,-100.00,WNW,296,4.0,10.0,68,0.00,,,0.00,800.000000,,2013-08-01 21:53:00,
2013-08-01 15:04:00,66.0,55.0,-100.00,WNW,296,4.0,10.0,68,0.00,,,0.00,800.000000,,2013-08-01 22:04:00,
2013-08-01 15:13:00,66.0,55.0,-100.00,WNW,296,4.0,10.0,68,0.00,,,0.00,800.000000,,2013-08-01 22:13:00,
2013-08-01 15:22:00,66.0,55.0,-100.00,WNW,296,4.0,10.0,68,0.00,,,0.00,800.000000,,2013-08-01 22:22:00,
2013-08-01 15:58:00,65.0,55.0,-100.00,WNW,301,4.0,12.0,70,0.00,,,0.00,645.000000,,2013-08-01 22:58:00,
2013-08-01 16:13:00,65.0,55.0,-100.00,WNW,301,4.0,12.0,70,0.00,,,0.00,645.000000,,2013-08-01 23:13:00,
2013-08-01 16:23:00,65.0,55.0,-100.00,WNW,301,4.0,12.0,70,0.00,,,0.00,645.000000,,2013-08-01 23:23:00,
2013-08-01 17:00:00,64.0,55.0,-100.00,NNE,15,3.0,9.0,72,0.00,,,0.00,468.000000,,2013-08-02 00:00:00,
2013-08-01 17:14:00,64.0,55.0,-100.00,NNE,15,3.0,9.0,72,0.00,,,0.00,468.000000,,2013-08-02 00:14:00,
2013-08-01 17:23:00,64.0,55.0,-100.00,NNE,15,3.0,9.0,72,0.00,,,0.00,468.000000,,2013-08-02 00:23:00,
2013-08-01 18:02:00,64.0,56.0,-100.00,NW,308,2.0,8.0,74,0.00,,,0.00,420.000000,,2013-08-02 01:02:00,
2013-08-01 18:23:00,64.0,56.0,-100.00,NW,308,2.0,8.0,74,0.00,,,0.00,420.000000,,2013-08-02 01:23:00,
2013-08-01 18:59:00,64.0,55.0,-100.00,West,277,7.0,14.0,73,0.00,,,0.00,364.000000,,2013-08-02 01:59:00,
2013-08-01 19:14:00,64.0,55.0,-100.00,West,277,7.0,14.0,73,0.00,,,0.00,364.000000,,2013-08-02 02:14:00,
2013-08-01 19:22:00,64.0,55.0,-100.00,West,277,7.0,14.0,73,0.00,,,0.00,364.000000,,2013-08-02 02:22:00,
2013-08-01 19:53:00,60.0,53.0,-100.00,NW,326,3.0,12.0,78,0.00,,,0.00,329.000000,,2013-08-02 02:53:00,
2013-08-01 20:12:00,60.0,53.0,-100.00,NW,326,3.0,12.0,78,0.00,,,0.00,329.000000,,2013-08-02 03:12:00,
2013-08-01 20:22:00,60.0,53.0,-100.00,NW,326,3.0,12.0,78,0.00,,,0.00,329.000000,,2013-08-02 03:22:00,
2013-08-01 20:59:00,53.0,52.0,-100.00,ENE,76,2.0,7.0,96,0.00,,,0.00,90.000000,,2013-08-02 03:59:00,
2013-08-01 21:02:00,53.0,52.0,-100.00,ENE,76,2.0,7.0,96,0.00,,,0.00,90.000000,,2013-08-02 04:02:00,
2013-08-01 21:12:00,53.0,52.0,-100.00,ENE,76,2.0,7.0,96,0.00,,,0.00,90.000000,,2013-08-02 04:12:00,
2013-08-01 21:22:00,53.0,52.0,-100.00,ENE,76,2.0,7.0,96,0.00,,,0.00,90.000000,,2013-08-02 04:22:00,
2013-08-01 21:53:00,52.0,50.0,-100.00,ENE,57,0.0,3.0,94,0.00,,,0.00,5.000000,,2013-08-02 04:53:00,
2013-08-01 22:02:00,52.0,50.0,-100.00,ENE,57,0.0,3.0,94,0.00,,,0.00,5.000000,,2013-08-02 05:02:00,
2013-08-01 22:12:00,52.0,50.0,-100.00,ENE,57,0.0,3.0,94,0.00,,,0.00,5.000000,,2013-08-02 05:12:00,
2013-08-01 22:22:00,52.0,50.0,-100.00,ENE,57,0.0,3.0,94,0.00,,,0.00,5.000000,,2013-08-02 05:22:00,
2013-08-01 22:53:00,52.0,51.0,-100.00,North,352,0.0,2.0,95,0.00,,,0.00,0.000000,,2013-08-02 05:53:00,
2013-08-01 23:02:00,52.0,51.0,-100.00,North,352,0.0,2.0,95,0.00,,,0.00,0.000000,,2013-08-02 06:02:00,
2013-08-01 23:12:00,52.0,51.0,-100.00,North,352,0.0,2.0,95,0.00,,,0.00,0.000000,,2013-08-02 06:12:00,
2013-08-01 23:22:00,52.0,51.0,-100.00,North,352,0.0,2.0,95,0.00,,,0.00,0.000000,,2013-08-02 06:22:00,
2013-08-01 23:52:00,51.0,50.0,-100.00,SSE,151,1.0,3.0,97,0.00,,,0.00,0.000000,,2013-08-02 06:52:00,